createdAt,value
2018-01-25T00:02:12.725Z,94.32
2018-01-25T00:04:42.173Z,94.13
2018-01-25T00:07:11.085Z,94.08
2018-01-25T00:09:40.559Z,94.08
2018-01-25T00:12:08.273Z,94.38
2018-01-25T00:14:35.959Z,94.54
2018-01-25T00:17:03.601Z,94.38
2018-01-25T00:19:31.439Z,94.37
2018-01-25T00:22:00.727Z,94.50
2018-01-25T00:24:30.024Z,94.70
2018-01-25T00:26:57.981Z,94.75
2018-01-25T00:29:25.652Z,94.70
2018-01-25T00:31:53.379Z,95.02
2018-01-25T00:34:21.789Z,95.15
2018-01-25T00:36:49.466Z,95.21
2018-01-25T00:39:18.907Z,95.34
2018-01-25T00:41:46.594Z,95.36
2018-01-25T00:44:14.247Z,95.34
2018-01-25T00:46:41.918Z,95.55
2018-01-25T00:49:10.441Z,95.62
2018-01-25T00:51:38.089Z,95.63
2018-01-25T00:54:05.717Z,95.56
2018-01-25T00:56:33.565Z,95.45
2018-01-25T00:59:02.035Z,95.47
2018-01-25T01:01:29.731Z,95.45
2018-01-25T01:03:58.141Z,95.39
2018-01-25T01:06:28.405Z,95.44
2018-01-25T01:08:56.209Z,95.32
2018-01-25T01:11:23.870Z,95.34
2018-01-25T01:13:52.323Z,95.44
2018-01-25T01:16:20.029Z,95.29
2018-01-25T01:18:47.880Z,95.30
2018-01-25T01:21:17.382Z,95.27
2018-01-25T01:23:45.383Z,95.14
2018-01-25T01:26:14.683Z,95.12
2018-01-25T01:28:42.353Z,95.26
2018-01-25T01:31:10.006Z,95.30
2018-01-25T01:33:37.661Z,95.44
2018-01-25T01:36:05.275Z,95.48
2018-01-25T01:38:32.933Z,95.72
2018-01-25T01:41:02.305Z,95.75
2018-01-25T01:43:29.985Z,95.69
2018-01-25T01:45:59.413Z,95.56
2018-01-25T01:48:27.143Z,95.42
2018-01-25T01:50:56.407Z,95.42
2018-01-25T01:53:24.182Z,95.43
2018-01-25T01:55:51.845Z,95.43
2018-01-25T01:58:19.488Z,95.39
2018-01-25T02:00:47.153Z,95.29
2018-01-25T02:03:14.903Z,95.27
2018-01-25T02:05:42.655Z,95.19
2018-01-25T02:08:10.312Z,95.14
2018-01-25T02:10:38.778Z,95.53
2018-01-25T02:13:06.483Z,95.52
2018-01-25T02:15:34.199Z,95.70
2018-01-25T02:18:01.857Z,95.94
2018-01-25T02:20:29.567Z,95.87
2018-01-25T02:22:57.451Z,95.89
2018-01-25T02:25:26.846Z,95.88
2018-01-25T02:27:54.582Z,95.96
2018-01-25T02:30:22.216Z,96.03
2018-01-25T02:32:50.164Z,96.05
2018-01-25T02:35:17.845Z,95.98
2018-01-25T02:37:47.210Z,95.87
2018-01-25T02:40:14.980Z,95.78
2018-01-25T02:42:43.420Z,95.73
2018-01-25T02:45:11.090Z,95.75
2018-01-25T02:47:38.833Z,95.64
2018-01-25T02:50:06.514Z,95.68
2018-01-25T02:52:34.134Z,95.87
2018-01-25T02:55:01.784Z,95.87
2018-01-25T02:57:29.422Z,95.88
2018-01-25T02:59:57.123Z,95.97
2018-01-25T03:02:24.754Z,96.04
2018-01-25T03:04:52.541Z,95.94
2018-01-25T03:07:20.336Z,95.87
2018-01-25T03:09:48.656Z,95.93
2018-01-25T03:12:16.390Z,96.06
2018-01-25T03:14:44.762Z,96.20
2018-01-25T03:17:12.417Z,96.40
2018-01-25T03:19:41.802Z,96.39
2018-01-25T03:22:09.624Z,96.31
2018-01-25T03:24:39.024Z,96.20
2018-01-25T03:27:07.280Z,96.19
2018-01-25T03:29:34.908Z,96.09
2018-01-25T03:32:03.289Z,96.16
2018-01-25T03:34:31.710Z,96.20
2018-01-25T03:36:59.304Z,96.09
2018-01-25T03:39:26.988Z,96.02
2018-01-25T03:41:54.608Z,96.10
2018-01-25T03:44:22.374Z,96.08
2018-01-25T03:46:50.028Z,95.98
2018-01-25T03:49:17.646Z,95.96
2018-01-25T03:51:45.363Z,95.91
2018-01-25T03:54:12.983Z,96.11
2018-01-25T03:56:40.748Z,96.09
2018-01-25T03:59:08.501Z,96.03
2018-01-25T04:01:39.894Z,95.93
2018-01-25T04:04:08.247Z,96.01
2018-01-25T04:06:38.021Z,96.39
2018-01-25T04:09:05.677Z,96.69
2018-01-25T04:11:33.372Z,96.76
2018-01-25T04:14:01.032Z,96.81
2018-01-25T04:16:30.392Z,96.69
2018-01-25T04:18:58.404Z,96.58
2018-01-25T04:21:26.040Z,96.62
2018-01-25T04:23:53.775Z,96.51
2018-01-25T04:26:21.485Z,96.49
2018-01-25T04:28:49.126Z,96.50
2018-01-25T04:31:16.839Z,96.58
2018-01-25T04:33:46.030Z,96.66
2018-01-25T04:36:15.432Z,96.73
2018-01-25T04:38:43.081Z,96.81
2018-01-25T04:41:10.742Z,96.77
2018-01-25T04:43:38.372Z,96.84
2018-01-25T04:46:06.044Z,97.01
2018-01-25T04:48:34.446Z,96.99
2018-01-25T04:51:02.149Z,96.91
2018-01-25T04:53:29.798Z,96.91
2018-01-25T04:55:57.454Z,96.82
2018-01-25T04:58:25.203Z,96.86
2018-01-25T05:00:52.856Z,96.84
2018-01-25T05:03:20.529Z,96.79
2018-01-25T05:05:48.208Z,96.69
2018-01-25T05:08:15.848Z,96.57
2018-01-25T05:10:43.477Z,96.54
2018-01-25T05:13:11.274Z,96.50
2018-01-25T05:15:40.512Z,96.53
2018-01-25T05:18:08.222Z,96.56
2018-01-25T05:20:37.612Z,96.55
2018-01-25T05:23:05.329Z,96.41
2018-01-25T05:25:33.097Z,96.39
2018-01-25T05:28:03.053Z,96.34
2018-01-25T05:30:33.471Z,96.37
2018-01-25T05:33:01.196Z,96.37
2018-01-25T05:35:28.876Z,96.47
2018-01-25T05:37:58.351Z,96.35
2018-01-25T05:40:26.031Z,96.37
2018-01-25T05:42:53.797Z,96.47
2018-01-25T05:45:24.649Z,96.43
2018-01-25T05:47:54.051Z,96.35
2018-01-25T05:50:21.727Z,96.38
2018-01-25T05:52:49.431Z,96.37
2018-01-25T05:55:17.159Z,96.31
2018-01-25T05:57:44.915Z,96.36
2018-01-25T06:00:12.633Z,96.44
2018-01-25T06:02:41.883Z,96.57
2018-01-25T06:05:09.714Z,96.62
2018-01-25T06:07:37.391Z,96.67
2018-01-25T06:10:05.804Z,96.71
2018-01-25T06:12:33.480Z,96.64
2018-01-25T06:15:01.183Z,96.62
2018-01-25T06:17:28.907Z,96.54
2018-01-25T06:19:58.797Z,96.46
2018-01-25T06:22:26.457Z,96.37
2018-01-25T06:24:54.175Z,96.25
2018-01-25T06:27:21.850Z,96.34
2018-01-25T06:29:49.479Z,96.39
2018-01-25T06:32:17.403Z,96.37
2018-01-25T06:34:45.197Z,96.34
2018-01-25T06:37:12.917Z,96.26
2018-01-25T06:39:40.575Z,96.27
2018-01-25T06:42:08.391Z,96.28
2018-01-25T06:44:38.300Z,96.37
2018-01-25T06:47:08.657Z,96.54
2018-01-25T06:49:36.368Z,96.59
2018-01-25T06:52:04.068Z,96.59
2018-01-25T06:54:31.700Z,96.66
2018-01-25T06:56:59.329Z,96.71
2018-01-25T06:59:28.727Z,96.59
2018-01-25T07:02:00.741Z,96.52
2018-01-25T07:04:28.487Z,96.41
2018-01-25T07:06:56.841Z,96.34
2018-01-25T07:09:27.060Z,96.44
2018-01-25T07:11:54.743Z,96.51
2018-01-25T07:14:22.408Z,96.48
2018-01-25T07:16:50.082Z,96.50
2018-01-25T07:19:17.724Z,96.81
2018-01-25T07:21:45.404Z,96.79
2018-01-25T07:24:13.085Z,96.87
2018-01-25T07:26:40.713Z,96.72
2018-01-25T07:29:08.513Z,96.76
2018-01-25T07:31:36.988Z,96.68
2018-01-25T07:34:07.332Z,96.56
2018-01-25T07:36:35.180Z,96.42
2018-01-25T07:39:02.914Z,96.45
2018-01-25T07:41:32.306Z,96.60
2018-01-25T07:44:00.408Z,96.63
2018-01-25T07:46:28.081Z,96.68
2018-01-25T07:48:55.814Z,97.07
2018-01-25T07:51:25.071Z,97.03
2018-01-25T07:53:52.775Z,97.14
2018-01-25T07:56:23.278Z,97.25
2018-01-25T07:58:50.993Z,97.27
2018-01-25T08:01:18.732Z,97.23
2018-01-25T08:03:46.592Z,97.26
2018-01-25T08:06:14.292Z,97.37
2018-01-25T08:08:42.118Z,97.34
2018-01-25T08:11:13.756Z,97.32
2018-01-25T08:13:41.440Z,97.38
2018-01-25T08:16:17.948Z,97.48
2018-01-25T08:18:47.346Z,97.48
2018-01-25T08:21:15.118Z,97.52
2018-01-25T08:23:43.150Z,97.52
2018-01-25T08:26:10.919Z,97.51
2018-01-25T08:28:38.604Z,97.48
2018-01-25T08:31:06.343Z,97.46
2018-01-25T08:33:34.013Z,97.44
2018-01-25T08:36:01.899Z,97.41
2018-01-25T08:38:29.588Z,97.42
2018-01-25T08:40:57.242Z,97.37
2018-01-25T08:43:25.299Z,97.31
2018-01-25T08:45:54.725Z,97.31
2018-01-25T08:48:22.522Z,97.25
2018-01-25T08:50:50.991Z,97.17
2018-01-25T08:53:18.782Z,97.06
2018-01-25T08:55:46.576Z,96.95
2018-01-25T08:58:14.269Z,96.87
2018-01-25T09:00:41.938Z,96.76
2018-01-25T09:03:10.405Z,96.60
2018-01-25T09:05:40.690Z,96.28
2018-01-25T09:08:11.368Z,96.11
2018-01-25T09:10:39.021Z,95.95
2018-01-25T09:13:06.912Z,95.83
2018-01-25T09:15:34.910Z,95.72
2018-01-25T09:18:04.175Z,95.60
2018-01-25T09:20:31.939Z,95.53
2018-01-25T09:23:01.373Z,95.44
2018-01-25T09:25:29.172Z,95.40
2018-01-25T09:27:58.596Z,95.37
2018-01-25T09:30:26.578Z,95.28
2018-01-25T09:32:54.484Z,95.11
2018-01-25T09:35:23.358Z,94.97
2018-01-25T09:37:52.801Z,94.88
2018-01-25T09:40:20.560Z,94.83
2018-01-25T09:42:51.166Z,94.67
2018-01-25T09:45:18.919Z,94.30
2018-01-25T09:47:46.615Z,94.08
2018-01-25T09:50:14.501Z,93.82
2018-01-25T09:52:42.573Z,93.38
2018-01-25T09:55:10.316Z,92.94
2018-01-25T10:10:38.992Z,91.23
2018-01-25T10:13:07.047Z,90.95
2018-01-25T10:15:34.850Z,90.65
2018-01-25T10:18:03.421Z,90.25
2018-01-25T10:20:31.243Z,88.86
2018-01-25T10:22:58.987Z,88.70
2018-01-25T10:25:26.809Z,88.56
2018-01-25T10:27:57.791Z,88.12
2018-01-25T10:30:25.682Z,87.83
2018-01-25T10:32:53.343Z,87.48
2018-01-25T10:35:23.731Z,85.87
2018-01-25T10:37:51.456Z,84.17
2018-01-25T10:40:21.189Z,84.01
2018-01-25T10:42:49.017Z,82.58
2018-01-25T10:45:16.845Z,82.15
2018-01-25T10:47:44.563Z,84.03
2018-01-25T10:50:12.460Z,84.61
2018-01-25T10:52:41.099Z,83.45
2018-01-25T10:55:08.963Z,82.21
2018-01-25T10:57:38.442Z,82.24
2018-01-25T11:00:08.837Z,82.05
2018-01-25T11:02:36.582Z,82.32
2018-01-25T11:05:06.183Z,80.46
2018-01-25T11:07:35.607Z,78.62
2018-01-25T11:10:04.163Z,79.66
2018-01-25T11:12:31.835Z,80.13
2018-01-25T11:14:59.577Z,79.16
2018-01-25T11:17:27.299Z,79.85
2018-01-25T11:19:57.124Z,80.11
2018-01-25T11:22:27.409Z,80.17
2018-01-25T11:24:56.869Z,79.76
2018-01-25T11:27:24.623Z,78.70
2018-01-25T11:29:52.357Z,78.98
2018-01-25T11:32:20.059Z,78.94
2018-01-25T11:34:47.783Z,78.29
2018-01-25T11:37:15.486Z,78.60
2018-01-25T11:39:45.757Z,78.88
2018-01-25T11:42:13.477Z,79.22
2018-01-25T11:44:41.929Z,79.41
2018-01-25T11:47:09.668Z,79.45
2018-01-25T11:49:37.427Z,79.46
2018-01-25T11:52:05.385Z,79.32
2018-01-25T11:54:33.273Z,79.07
2018-01-25T11:57:00.981Z,78.70
2018-01-25T11:59:28.944Z,78.76
2018-01-25T12:01:56.571Z,77.67
2018-01-25T12:04:25.893Z,77.75
2018-01-25T12:06:53.498Z,76.88
2018-01-25T12:09:25.125Z,77.45
2018-01-25T12:11:54.590Z,77.56
2018-01-25T12:14:24.069Z,76.94
2018-01-25T12:16:51.760Z,77.05
2018-01-25T12:19:19.455Z,76.83
2018-01-25T12:21:49.122Z,77.32
2018-01-25T12:24:19.074Z,77.34
2018-01-25T12:26:46.791Z,77.03
2018-01-25T12:29:14.568Z,77.52
2018-01-25T12:31:42.226Z,77.02
2018-01-25T12:34:09.872Z,77.30
2018-01-25T12:36:37.541Z,76.56
2018-01-25T12:39:05.250Z,76.53
2018-01-25T12:41:32.999Z,75.26
2018-01-25T12:44:00.767Z,75.55
2018-01-25T12:46:28.613Z,74.71
2018-01-25T12:48:58.071Z,74.78
2018-01-25T12:51:25.782Z,74.92
2018-01-25T12:53:53.512Z,75.11
2018-01-25T12:56:21.352Z,74.73
2018-01-25T12:58:48.991Z,74.35
2018-01-25T13:01:18.243Z,74.13
2018-01-25T13:03:45.908Z,74.34
2018-01-25T13:06:13.567Z,74.69
2018-01-25T13:08:41.379Z,74.81
2018-01-25T13:11:09.522Z,74.70
2018-01-25T13:13:37.198Z,74.76
2018-01-25T13:16:04.934Z,74.80
2018-01-25T13:18:32.655Z,75.24
2018-01-25T13:21:00.296Z,75.23
2018-01-25T13:23:27.956Z,75.65
2018-01-25T13:25:57.380Z,75.84
2018-01-25T13:28:25.816Z,75.51
2018-01-25T13:30:53.518Z,75.51
2018-01-25T13:33:26.695Z,75.64
2018-01-25T13:35:55.114Z,76.12
2018-01-25T13:38:23.107Z,75.98
2018-01-25T13:40:50.764Z,76.25
2018-01-25T13:43:20.625Z,76.45
2018-01-25T13:45:50.202Z,76.63
2018-01-25T13:48:20.546Z,76.70
2018-01-25T13:50:50.892Z,76.88
2018-01-25T13:53:18.566Z,76.68
2018-01-25T13:55:46.243Z,76.78
2018-01-25T13:58:13.914Z,76.91
2018-01-25T14:03:13.790Z,76.93
2018-01-25T14:05:41.498Z,76.75
2018-01-25T14:08:09.208Z,76.69
2018-01-25T14:10:37.831Z,76.44
2018-01-25T14:13:06.492Z,76.52
2018-01-25T14:15:34.403Z,76.48
2018-01-25T14:18:02.620Z,76.58
2018-01-25T14:20:30.694Z,76.75
2018-01-25T14:22:58.533Z,77.29
2018-01-25T14:25:27.290Z,77.76
2018-01-25T14:27:55.204Z,78.07
2018-01-25T14:30:22.824Z,78.37
2018-01-25T14:32:50.561Z,78.81
2018-01-25T14:35:19.954Z,79.10
2018-01-25T14:37:47.674Z,79.56
2018-01-25T14:40:15.226Z,79.79
2018-01-25T14:42:43.155Z,79.93
2018-01-25T14:45:12.480Z,79.85
2018-01-25T14:47:41.841Z,80.08
2018-01-25T14:50:10.222Z,80.23
2018-01-25T14:52:40.065Z,80.41
2018-01-25T14:55:07.799Z,80.50
2018-01-25T14:57:35.428Z,80.48
2018-01-25T15:00:05.046Z,80.73
2018-01-25T15:02:32.937Z,81.02
2018-01-25T15:05:03.182Z,81.31
2018-01-25T15:07:30.950Z,81.76
2018-01-25T15:10:00.429Z,82.01
2018-01-25T15:12:28.179Z,82.30
2018-01-25T15:14:58.168Z,82.64
2018-01-25T15:17:26.614Z,82.98
2018-01-25T15:19:54.408Z,83.36
2018-01-25T15:22:23.052Z,83.79
2018-01-25T15:24:53.921Z,84.11
2018-01-25T15:27:27.159Z,84.40
2018-01-25T15:29:56.604Z,84.67
2018-01-25T15:32:24.371Z,84.89
2018-01-25T15:34:53.716Z,85.35
2018-01-25T15:37:21.497Z,85.61
2018-01-25T15:39:50.941Z,85.91
2018-01-25T15:42:19.351Z,86.25
2018-01-25T15:44:47.199Z,86.36
2018-01-25T15:47:14.992Z,86.55
2018-01-25T15:49:42.684Z,86.79
2018-01-25T15:52:11.134Z,87.09
2018-01-25T15:54:41.473Z,87.33
2018-01-25T15:59:08.002Z,87.58
2018-01-25T16:01:36.523Z,87.82
2018-01-25T16:04:04.992Z,87.93
2018-01-25T16:06:35.132Z,88.16
2018-01-25T16:09:06.215Z,88.43
2018-01-25T16:11:34.656Z,88.61
2018-01-25T16:14:03.135Z,88.90
2018-01-25T16:16:33.253Z,89.09
2018-01-25T16:19:02.457Z,89.27
2018-01-25T16:21:30.826Z,89.40
2018-01-25T16:24:00.009Z,89.55
2018-01-25T16:26:28.429Z,89.56
2018-01-25T16:28:57.804Z,89.60
2018-01-25T16:31:27.001Z,89.72
2018-01-25T16:33:56.143Z,90.05
2018-01-25T16:36:26.063Z,90.18
2018-01-25T16:38:54.432Z,90.39
2018-01-25T16:41:23.548Z,90.56
2018-01-25T16:43:54.848Z,90.69
2018-01-25T16:46:23.314Z,90.83
2018-01-25T16:48:51.781Z,91.02
2018-01-25T16:51:22.207Z,91.07
2018-01-25T16:53:53.631Z,91.23
2018-01-25T16:56:30.983Z,91.51
2018-01-25T16:59:01.335Z,91.59
2018-01-25T17:01:29.924Z,91.65
2018-01-25T17:03:59.269Z,91.78
2018-01-25T17:06:28.323Z,91.90
2018-01-25T17:08:56.639Z,91.95
2018-01-25T17:11:25.021Z,92.03
2018-01-25T17:13:53.469Z,92.04
2018-01-25T17:16:23.635Z,92.10
2018-01-25T17:18:52.021Z,92.15
2018-01-25T17:21:20.664Z,92.26
2018-01-25T17:23:48.982Z,92.48
2018-01-25T17:26:18.001Z,92.71
2018-01-25T17:28:46.439Z,92.78
2018-01-25T17:31:14.995Z,92.83
2018-01-25T17:33:44.131Z,92.79
2018-01-25T17:36:12.642Z,92.77
2018-01-25T17:38:42.515Z,92.80
2018-01-25T17:41:11.820Z,92.80
2018-01-25T17:43:45.455Z,92.84
2018-01-25T17:46:14.400Z,93.07
2018-01-25T17:48:45.386Z,93.04
2018-01-25T17:51:13.712Z,93.13
2018-01-25T17:53:42.873Z,93.21
2018-01-25T17:56:14.306Z,93.23
2018-01-25T17:58:44.131Z,93.28
2018-01-25T18:01:14.114Z,93.28
2018-01-25T18:03:42.528Z,93.26
2018-01-25T18:06:12.613Z,93.25
2018-01-25T18:08:44.177Z,93.34
2018-01-25T18:11:12.702Z,93.50
2018-01-25T18:13:45.950Z,93.60
2018-01-25T18:16:16.400Z,93.74
2018-01-25T18:18:45.412Z,93.92
2018-01-25T18:21:13.845Z,93.95
2018-01-25T18:23:44.577Z,93.94
2018-01-25T18:26:12.937Z,93.97
2018-01-25T18:28:41.391Z,94.02
2018-01-25T18:31:12.636Z,94.03
2018-01-25T18:33:42.288Z,94.03
2018-01-25T18:36:12.273Z,93.97
2018-01-25T18:38:42.532Z,93.98
2018-01-25T18:41:11.810Z,94.01
2018-01-25T18:43:45.185Z,94.05
2018-01-25T18:46:16.134Z,94.02
2018-01-25T18:48:46.391Z,94.02
2018-01-25T18:51:14.883Z,94.08
2018-01-25T18:53:43.238Z,94.17
2018-01-25T18:56:11.725Z,94.26
2018-01-25T18:58:41.787Z,94.35
2018-01-25T19:01:12.104Z,94.40
2018-01-25T19:03:42.670Z,94.63
2018-01-25T19:06:11.519Z,94.78
2018-01-25T19:08:39.983Z,94.75
2018-01-25T19:11:08.372Z,94.85
2018-01-25T19:13:36.966Z,94.90
2018-01-25T19:16:05.415Z,94.90
2018-01-25T19:18:34.049Z,94.88
2018-01-25T19:21:04.190Z,94.84
2018-01-25T19:23:33.660Z,94.97
2018-01-25T19:26:01.994Z,95.16
2018-01-25T19:28:30.410Z,95.09
2018-01-25T19:31:01.352Z,95.04
2018-01-25T19:33:30.545Z,94.97
2018-01-25T19:36:00.160Z,94.89
2018-01-25T19:38:28.944Z,94.93
2018-01-25T19:40:59.369Z,95.01
2018-01-25T19:43:30.579Z,94.98
2018-01-25T19:45:59.100Z,94.96
2018-01-25T19:48:27.573Z,94.95
2018-01-25T19:50:55.979Z,95.01
2018-01-25T19:53:24.464Z,95.02
2018-01-25T19:55:53.647Z,95.01
2018-01-25T19:58:24.010Z,95.06
2018-01-25T20:00:54.100Z,95.06
2018-01-25T20:03:22.558Z,95.02
2018-01-25T20:05:53.758Z,94.98
2018-01-25T20:08:23.244Z,95.13
2018-01-25T20:10:51.726Z,95.18
2018-01-25T20:13:20.921Z,95.20
2018-01-25T20:15:49.303Z,95.23
2018-01-25T20:18:20.619Z,95.29
2018-01-25T20:20:51.402Z,95.29
2018-01-25T20:23:19.917Z,95.25
2018-01-25T20:25:48.587Z,95.26
2018-01-25T20:28:17.103Z,95.23
2018-01-25T20:30:47.356Z,95.25
2018-01-25T20:33:18.061Z,95.28
2018-01-25T20:35:48.340Z,95.37
2018-01-25T20:38:19.164Z,95.41
2018-01-25T20:40:48.720Z,95.45
2018-01-25T20:43:18.215Z,95.40
2018-01-25T20:45:46.692Z,95.38
2018-01-25T20:48:15.485Z,95.35
2018-01-25T20:50:44.169Z,95.34
2018-01-25T20:53:12.769Z,95.42
2018-01-25T20:55:43.741Z,95.47
2018-01-25T20:58:12.286Z,95.51
2018-01-25T21:00:42.365Z,95.58
2018-01-25T21:03:10.812Z,95.67
2018-01-25T21:05:39.128Z,95.72
2018-01-25T21:08:07.481Z,95.73
2018-01-25T21:10:35.839Z,95.72
2018-01-25T21:13:05.888Z,95.89
2018-01-25T21:15:34.280Z,95.91
2018-01-25T21:18:02.640Z,95.80
2018-01-25T21:20:32.823Z,95.77
2018-01-25T21:23:01.259Z,95.74
2018-01-25T21:25:29.711Z,95.68
2018-01-25T21:27:58.039Z,95.66
2018-01-25T21:30:28.889Z,95.64
2018-01-25T21:32:59.947Z,95.68
2018-01-25T21:35:28.416Z,95.70
2018-01-25T21:37:56.781Z,95.73
2018-01-25T21:40:25.143Z,95.71
2018-01-25T21:42:53.508Z,95.78
2018-01-25T21:45:21.869Z,95.88
2018-01-25T21:47:50.236Z,96.01
2018-01-25T21:50:18.624Z,96.04
2018-01-25T21:52:49.387Z,96.11
2018-01-25T21:55:18.576Z,96.10
2018-01-25T21:57:46.966Z,96.08
2018-01-25T22:00:17.923Z,96.04
2018-01-25T22:02:46.242Z,96.03
2018-01-25T22:05:15.773Z,96.09
2018-01-25T22:07:44.135Z,96.08
2018-01-25T22:10:12.512Z,96.09
2018-01-25T22:12:41.675Z,96.05
2018-01-25T22:15:09.995Z,96.05
2018-01-25T22:17:38.387Z,95.99
2018-01-25T22:20:06.749Z,96.02
2018-01-25T22:22:35.904Z,96.11
2018-01-25T22:25:05.823Z,96.22
2018-01-25T22:27:34.186Z,96.50
2018-01-25T22:30:02.491Z,96.63
2018-01-25T22:32:30.886Z,96.65
2018-01-25T22:34:59.189Z,96.65
2018-01-25T22:37:29.263Z,96.66
2018-01-25T22:40:00.282Z,96.63
2018-01-25T22:42:28.673Z,96.63
2018-01-25T22:44:56.949Z,96.68
2018-01-25T22:47:27.076Z,96.81
2018-01-25T22:49:56.165Z,97.01
2018-01-25T22:52:25.519Z,97.15
2018-01-25T22:54:53.953Z,97.10
2018-01-25T22:57:22.279Z,97.05
2018-01-25T22:59:50.651Z,96.97
2018-01-25T23:02:18.961Z,96.86
2018-01-25T23:04:47.305Z,96.72
2018-01-25T23:07:17.303Z,96.69
2018-01-25T23:09:46.391Z,97.60
2018-01-25T23:12:16.473Z,97.71
2018-01-25T23:14:44.810Z,97.63
2018-01-25T23:17:14.865Z,97.49
2018-01-25T23:19:46.055Z,97.43
2018-01-25T23:22:14.553Z,97.40
2018-01-25T23:24:43.645Z,97.44
2018-01-25T23:27:12.230Z,97.54
2018-01-25T23:29:40.560Z,97.54
2018-01-25T23:32:08.847Z,97.64
2018-01-25T23:34:37.161Z,97.68
2018-01-25T23:37:06.267Z,97.59
2018-01-25T23:39:36.907Z,97.57
2018-01-25T23:42:05.241Z,97.60
2018-01-25T23:44:33.529Z,97.64
2018-01-25T23:47:02.006Z,97.70
2018-01-25T23:49:30.365Z,97.72
2018-01-25T23:51:58.683Z,97.79
2018-01-25T23:54:26.983Z,97.86
2018-01-25T23:56:55.313Z,97.85
2018-01-25T23:59:23.585Z,97.85
